sensor_id;sensor_type;location;lat;lon;timestamp;P1;durP1;ratioP1;P2;durP2;ratioP2
6033;SDS011;3045;43.226;27.858;2023-02-28T00:01:07;3.77;;;3.67;;
6033;SDS011;3045;43.226;27.858;2023-02-28T00:03:34;4.17;;;3.97;;
6033;SDS011;3045;43.226;27.858;2023-02-28T00:06:02;3.47;;;3.27;;
6033;SDS011;3045;43.226;27.858;2023-02-28T00:08:29;3.70;;;3.50;;
6033;SDS011;3045;43.226;27.858;2023-02-28T00:11:00;3.50;;;3.40;;
6033;SDS011;3045;43.226;27.858;2023-02-28T00:13:28;4.03;;;3.93;;
6033;SDS011;3045;43.226;27.858;2023-02-28T00:15:59;3.70;;;3.60;;
6033;SDS011;3045;43.226;27.858;2023-02-28T00:18:27;4.47;;;4.27;;
6033;SDS011;3045;43.226;27.858;2023-02-28T00:20:54;5.10;;;4.90;;
6033;SDS011;3045;43.226;27.858;2023-02-28T00:23:21;4.80;;;4.60;;
6033;SDS011;3045;43.226;27.858;2023-02-28T00:25:48;5.07;;;4.87;;
6033;SDS011;3045;43.226;27.858;2023-02-28T00:28:16;4.57;;;4.37;;
6033;SDS011;3045;43.226;27.858;2023-02-28T00:30:43;4.47;;;4.30;;
6033;SDS011;3045;43.226;27.858;2023-02-28T00:33:10;4.53;;;4.33;;
6033;SDS011;3045;43.226;27.858;2023-02-28T00:35:38;4.67;;;4.47;;
6033;SDS011;3045;43.226;27.858;2023-02-28T00:38:05;4.23;;;4.10;;
6033;SDS011;3045;43.226;27.858;2023-02-28T00:40:32;4.20;;;4.00;;
6033;SDS011;3045;43.226;27.858;2023-02-28T00:42:58;4.73;;;4.53;;
6033;SDS011;3045;43.226;27.858;2023-02-28T00:45:27;4.53;;;4.33;;
6033;SDS011;3045;43.226;27.858;2023-02-28T00:47:54;4.03;;;3.87;;
6033;SDS011;3045;43.226;27.858;2023-02-28T00:50:20;4.77;;;4.57;;
6033;SDS011;3045;43.226;27.858;2023-02-28T00:52:47;4.80;;;4.60;;
6033;SDS011;3045;43.226;27.858;2023-02-28T00:55:14;4.70;;;4.50;;
6033;SDS011;3045;43.226;27.858;2023-02-28T00:57:41;5.50;;;5.20;;
6033;SDS011;3045;43.226;27.858;2023-02-28T01:00:09;4.50;;;4.30;;
6033;SDS011;3045;43.226;27.858;2023-02-28T01:02:38;5.30;;;5.10;;
6033;SDS011;3045;43.226;27.858;2023-02-28T01:05:05;5.80;;;5.50;;
6033;SDS011;3045;43.226;27.858;2023-02-28T01:07:33;5.60;;;5.40;;
6033;SDS011;3045;43.226;27.858;2023-02-28T01:10:00;5.20;;;5.00;;
6033;SDS011;3045;43.226;27.858;2023-02-28T01:12:27;5.60;;;5.30;;
6033;SDS011;3045;43.226;27.858;2023-02-28T01:14:53;5.40;;;5.20;;
6033;SDS011;3045;43.226;27.858;2023-02-28T01:17:20;5.30;;;5.00;;
6033;SDS011;3045;43.226;27.858;2023-02-28T01:19:48;5.63;;;5.43;;
6033;SDS011;3045;43.226;27.858;2023-02-28T01:22:15;6.03;;;5.80;;
6033;SDS011;3045;43.226;27.858;2023-02-28T01:24:42;6.80;;;6.43;;
6033;SDS011;3045;43.226;27.858;2023-02-28T01:27:09;5.93;;;5.73;;
6033;SDS011;3045;43.226;27.858;2023-02-28T01:29:36;6.60;;;6.30;;
6033;SDS011;3045;43.226;27.858;2023-02-28T01:32:03;6.50;;;6.20;;
6033;SDS011;3045;43.226;27.858;2023-02-28T01:34:30;6.30;;;6.07;;
6033;SDS011;3045;43.226;27.858;2023-02-28T01:36:58;6.10;;;5.90;;
6033;SDS011;3045;43.226;27.858;2023-02-28T01:39:25;6.30;;;5.90;;
6033;SDS011;3045;43.226;27.858;2023-02-28T01:41:52;6.80;;;6.50;;
6033;SDS011;3045;43.226;27.858;2023-02-28T01:47:35;6.33;;;6.03;;
6033;SDS011;3045;43.226;27.858;2023-02-28T01:50:06;5.93;;;5.73;;
6033;SDS011;3045;43.226;27.858;2023-02-28T01:52:38;5.70;;;5.40;;
6033;SDS011;3045;43.226;27.858;2023-02-28T01:55:06;5.60;;;5.30;;
6033;SDS011;3045;43.226;27.858;2023-02-28T01:57:35;5.83;;;5.53;;
6033;SDS011;3045;43.226;27.858;2023-02-28T02:00:08;4.70;;;4.50;;
6033;SDS011;3045;43.226;27.858;2023-02-28T02:02:38;5.10;;;4.90;;
6033;SDS011;3045;43.226;27.858;2023-02-28T02:05:08;4.93;;;4.73;;
6033;SDS011;3045;43.226;27.858;2023-02-28T02:07:39;5.13;;;4.93;;
6033;SDS011;3045;43.226;27.858;2023-02-28T02:10:11;5.70;;;5.50;;
6033;SDS011;3045;43.226;27.858;2023-02-28T02:12:45;5.20;;;5.00;;
6033;SDS011;3045;43.226;27.858;2023-02-28T02:15:34;5.00;;;4.80;;
6033;SDS011;3045;43.226;27.858;2023-02-28T02:18:07;5.73;;;5.53;;
6033;SDS011;3045;43.226;27.858;2023-02-28T02:26:47;5.43;;;5.23;;
6033;SDS011;3045;43.226;27.858;2023-02-28T02:29:33;5.20;;;5.00;;
6033;SDS011;3045;43.226;27.858;2023-02-28T02:32:27;5.30;;;5.10;;
6033;SDS011;3045;43.226;27.858;2023-02-28T02:35:11;5.13;;;4.93;;
6033;SDS011;3045;43.226;27.858;2023-02-28T02:37:40;5.70;;;5.40;;
6033;SDS011;3045;43.226;27.858;2023-02-28T02:40:15;5.77;;;5.50;;
6033;SDS011;3045;43.226;27.858;2023-02-28T02:42:48;5.60;;;5.40;;
6033;SDS011;3045;43.226;27.858;2023-02-28T02:45:23;5.57;;;5.37;;
6033;SDS011;3045;43.226;27.858;2023-02-28T02:47:52;5.57;;;5.27;;
6033;SDS011;3045;43.226;27.858;2023-02-28T02:50:24;5.50;;;5.20;;
6033;SDS011;3045;43.226;27.858;2023-02-28T02:52:56;5.20;;;5.00;;
6033;SDS011;3045;43.226;27.858;2023-02-28T02:55:26;4.63;;;4.47;;
6033;SDS011;3045;43.226;27.858;2023-02-28T02:57:54;4.50;;;4.30;;
6033;SDS011;3045;43.226;27.858;2023-02-28T03:00:27;4.23;;;4.13;;
6033;SDS011;3045;43.226;27.858;2023-02-28T03:02:59;4.50;;;4.33;;
6033;SDS011;3045;43.226;27.858;2023-02-28T03:05:30;4.70;;;4.50;;
6033;SDS011;3045;43.226;27.858;2023-02-28T03:08:05;4.53;;;4.33;;
6033;SDS011;3045;43.226;27.858;2023-02-28T03:10:34;4.60;;;4.30;;
6033;SDS011;3045;43.226;27.858;2023-02-28T03:22:19;3.70;;;3.60;;
6033;SDS011;3045;43.226;27.858;2023-02-28T03:25:06;4.13;;;4.03;;
6033;SDS011;3045;43.226;27.858;2023-02-28T03:27:38;4.43;;;4.03;;
6033;SDS011;3045;43.226;27.858;2023-02-28T03:30:10;4.90;;;4.63;;
6033;SDS011;3045;43.226;27.858;2023-02-28T03:32:46;4.47;;;4.27;;
6033;SDS011;3045;43.226;27.858;2023-02-28T03:35:20;4.37;;;4.17;;
6033;SDS011;3045;43.226;27.858;2023-02-28T03:37:52;4.80;;;4.60;;
6033;SDS011;3045;43.226;27.858;2023-02-28T03:40:21;4.53;;;4.33;;
6033;SDS011;3045;43.226;27.858;2023-02-28T03:42:53;5.00;;;4.80;;
6033;SDS011;3045;43.226;27.858;2023-02-28T03:45:25;4.67;;;4.47;;
6033;SDS011;3045;43.226;27.858;2023-02-28T03:47:54;5.30;;;5.10;;
6033;SDS011;3045;43.226;27.858;2023-02-28T03:50:25;5.00;;;4.77;;
6033;SDS011;3045;43.226;27.858;2023-02-28T03:53:00;4.87;;;4.67;;
6033;SDS011;3045;43.226;27.858;2023-02-28T03:55:33;4.53;;;4.33;;
6033;SDS011;3045;43.226;27.858;2023-02-28T03:58:05;4.97;;;4.77;;
6033;SDS011;3045;43.226;27.858;2023-02-28T04:00:39;5.00;;;4.80;;
6033;SDS011;3045;43.226;27.858;2023-02-28T04:03:09;5.10;;;4.90;;
6033;SDS011;3045;43.226;27.858;2023-02-28T04:05:44;5.60;;;5.40;;
6033;SDS011;3045;43.226;27.858;2023-02-28T04:08:18;6.23;;;5.93;;
6033;SDS011;3045;43.226;27.858;2023-02-28T04:10:47;5.37;;;5.00;;
6033;SDS011;3045;43.226;27.858;2023-02-28T04:13:18;5.40;;;5.03;;
6033;SDS011;3045;43.226;27.858;2023-02-28T04:15:45;5.50;;;5.30;;
6033;SDS011;3045;43.226;27.858;2023-02-28T04:18:12;5.80;;;5.40;;
6033;SDS011;3045;43.226;27.858;2023-02-28T04:20:38;6.77;;;6.47;;
6033;SDS011;3045;43.226;27.858;2023-02-28T04:23:05;5.67;;;5.27;;
6033;SDS011;3045;43.226;27.858;2023-02-28T04:25:33;5.83;;;5.43;;
6033;SDS011;3045;43.226;27.858;2023-02-28T04:28:00;6.40;;;6.03;;
6033;SDS011;3045;43.226;27.858;2023-02-28T04:30:27;6.27;;;5.97;;
6033;SDS011;3045;43.226;27.858;2023-02-28T04:32:54;7.20;;;6.80;;
6033;SDS011;3045;43.226;27.858;2023-02-28T04:35:21;5.90;;;5.50;;
6033;SDS011;3045;43.226;27.858;2023-02-28T04:37:48;7.20;;;6.47;;
6033;SDS011;3045;43.226;27.858;2023-02-28T04:40:15;6.67;;;6.37;;
6033;SDS011;3045;43.226;27.858;2023-02-28T04:42:43;6.30;;;6.10;;
6033;SDS011;3045;43.226;27.858;2023-02-28T04:45:10;7.07;;;6.43;;
6033;SDS011;3045;43.226;27.858;2023-02-28T04:47:37;6.30;;;6.00;;
6033;SDS011;3045;43.226;27.858;2023-02-28T04:50:04;6.93;;;6.53;;
6033;SDS011;3045;43.226;27.858;2023-02-28T04:52:32;6.80;;;6.50;;
6033;SDS011;3045;43.226;27.858;2023-02-28T04:54:59;6.63;;;6.33;;
6033;SDS011;3045;43.226;27.858;2023-02-28T04:57:27;7.33;;;7.03;;
6033;SDS011;3045;43.226;27.858;2023-02-28T04:59:56;6.93;;;6.63;;
6033;SDS011;3045;43.226;27.858;2023-02-28T05:02:23;8.07;;;7.67;;
6033;SDS011;3045;43.226;27.858;2023-02-28T05:04:50;13.17;;;8.83;;
6033;SDS011;3045;43.226;27.858;2023-02-28T05:07:17;8.03;;;7.43;;
6033;SDS011;3045;43.226;27.858;2023-02-28T05:09:43;9.23;;;8.73;;
6033;SDS011;3045;43.226;27.858;2023-02-28T05:12:10;8.60;;;8.20;;
6033;SDS011;3045;43.226;27.858;2023-02-28T05:14:37;10.10;;;9.33;;
6033;SDS011;3045;43.226;27.858;2023-02-28T05:17:06;9.37;;;8.67;;
6033;SDS011;3045;43.226;27.858;2023-02-28T05:19:33;11.07;;;8.50;;
6033;SDS011;3045;43.226;27.858;2023-02-28T05:21:59;8.90;;;8.13;;
6033;SDS011;3045;43.226;27.858;2023-02-28T05:24:27;10.10;;;9.47;;
6033;SDS011;3045;43.226;27.858;2023-02-28T05:26:54;10.03;;;9.33;;
6033;SDS011;3045;43.226;27.858;2023-02-28T05:29:21;10.10;;;9.30;;
6033;SDS011;3045;43.226;27.858;2023-02-28T05:31:48;11.30;;;10.33;;
6033;SDS011;3045;43.226;27.858;2023-02-28T05:34:17;11.57;;;10.73;;
6033;SDS011;3045;43.226;27.858;2023-02-28T05:36:45;12.00;;;10.90;;
6033;SDS011;3045;43.226;27.858;2023-02-28T05:39:12;11.47;;;10.67;;
6033;SDS011;3045;43.226;27.858;2023-02-28T05:41:40;13.20;;;12.20;;
6033;SDS011;3045;43.226;27.858;2023-02-28T05:44:10;12.93;;;11.83;;
6033;SDS011;3045;43.226;27.858;2023-02-28T05:46:37;12.07;;;10.97;;
6033;SDS011;3045;43.226;27.858;2023-02-28T05:49:04;12.47;;;11.47;;
6033;SDS011;3045;43.226;27.858;2023-02-28T05:51:32;13.33;;;12.13;;
6033;SDS011;3045;43.226;27.858;2023-02-28T05:54:01;12.70;;;11.40;;
6033;SDS011;3045;43.226;27.858;2023-02-28T05:56:29;14.00;;;12.60;;
6033;SDS011;3045;43.226;27.858;2023-02-28T05:58:56;13.40;;;12.10;;
6033;SDS011;3045;43.226;27.858;2023-02-28T06:01:25;14.87;;;13.43;;
6033;SDS011;3045;43.226;27.858;2023-02-28T06:03:57;16.37;;;14.20;;
6033;SDS011;3045;43.226;27.858;2023-02-28T06:06:24;15.80;;;14.20;;
6033;SDS011;3045;43.226;27.858;2023-02-28T06:08:53;15.63;;;13.90;;
6033;SDS011;3045;43.226;27.858;2023-02-28T06:11:20;18.23;;;14.90;;
6033;SDS011;3045;43.226;27.858;2023-02-28T06:13:46;19.23;;;16.20;;
6033;SDS011;3045;43.226;27.858;2023-02-28T06:16:13;17.27;;;14.90;;
6033;SDS011;3045;43.226;27.858;2023-02-28T06:18:40;24.37;;;15.97;;
6033;SDS011;3045;43.226;27.858;2023-02-28T06:21:07;17.70;;;15.80;;
6033;SDS011;3045;43.226;27.858;2023-02-28T06:23:34;18.93;;;15.17;;
6033;SDS011;3045;43.226;27.858;2023-02-28T06:26:02;20.27;;;15.60;;
6033;SDS011;3045;43.226;27.858;2023-02-28T06:28:29;21.17;;;16.77;;
6033;SDS011;3045;43.226;27.858;2023-02-28T06:30:57;16.23;;;14.63;;
6033;SDS011;3045;43.226;27.858;2023-02-28T06:33:24;16.43;;;14.73;;
6033;SDS011;3045;43.226;27.858;2023-02-28T06:35:51;17.00;;;14.90;;
6033;SDS011;3045;43.226;27.858;2023-02-28T06:38:20;17.30;;;14.50;;
6033;SDS011;3045;43.226;27.858;2023-02-28T06:40:52;15.40;;;13.83;;
6033;SDS011;3045;43.226;27.858;2023-02-28T06:43:21;20.67;;;15.50;;
6033;SDS011;3045;43.226;27.858;2023-02-28T06:45:49;18.80;;;14.50;;
6033;SDS011;3045;43.226;27.858;2023-02-28T06:48:16;17.60;;;14.73;;
6033;SDS011;3045;43.226;27.858;2023-02-28T06:50:44;18.83;;;15.03;;
6033;SDS011;3045;43.226;27.858;2023-02-28T06:53:11;15.50;;;14.00;;
6033;SDS011;3045;43.226;27.858;2023-02-28T06:55:39;17.10;;;14.60;;
6033;SDS011;3045;43.226;27.858;2023-02-28T06:58:07;16.80;;;14.13;;
6033;SDS011;3045;43.226;27.858;2023-02-28T07:00:44;15.23;;;13.60;;
6033;SDS011;3045;43.226;27.858;2023-02-28T07:03:12;18.77;;;14.60;;
6033;SDS011;3045;43.226;27.858;2023-02-28T07:05:40;15.17;;;13.70;;
6033;SDS011;3045;43.226;27.858;2023-02-28T07:08:07;15.20;;;13.60;;
6033;SDS011;3045;43.226;27.858;2023-02-28T07:10:34;15.47;;;13.97;;
6033;SDS011;3045;43.226;27.858;2023-02-28T07:13:06;14.13;;;12.37;;
6033;SDS011;3045;43.226;27.858;2023-02-28T07:15:34;17.17;;;13.80;;
6033;SDS011;3045;43.226;27.858;2023-02-28T07:18:03;16.23;;;12.70;;
6033;SDS011;3045;43.226;27.858;2023-02-28T07:20:30;13.70;;;12.27;;
6033;SDS011;3045;43.226;27.858;2023-02-28T07:22:57;15.70;;;12.60;;
6033;SDS011;3045;43.226;27.858;2023-02-28T07:25:27;13.73;;;12.43;;
6033;SDS011;3045;43.226;27.858;2023-02-28T07:27:55;11.63;;;10.80;;
6033;SDS011;3045;43.226;27.858;2023-02-28T07:30:24;12.63;;;11.47;;
6033;SDS011;3045;43.226;27.858;2023-02-28T07:32:51;12.63;;;11.73;;
6033;SDS011;3045;43.226;27.858;2023-02-28T07:35:21;12.93;;;11.63;;
6033;SDS011;3045;43.226;27.858;2023-02-28T07:37:49;12.23;;;11.23;;
6033;SDS011;3045;43.226;27.858;2023-02-28T07:40:16;11.93;;;10.90;;
6033;SDS011;3045;43.226;27.858;2023-02-28T07:42:44;10.97;;;9.93;;
6033;SDS011;3045;43.226;27.858;2023-02-28T07:45:11;10.03;;;9.30;;
6033;SDS011;3045;43.226;27.858;2023-02-28T07:47:38;9.93;;;9.43;;
6033;SDS011;3045;43.226;27.858;2023-02-28T07:50:05;10.33;;;9.57;;
6033;SDS011;3045;43.226;27.858;2023-02-28T07:52:34;11.60;;;9.50;;
6033;SDS011;3045;43.226;27.858;2023-02-28T07:55:02;8.53;;;7.77;;
6033;SDS011;3045;43.226;27.858;2023-02-28T07:57:30;9.20;;;8.50;;
6033;SDS011;3045;43.226;27.858;2023-02-28T07:59:58;8.20;;;7.70;;
6033;SDS011;3045;43.226;27.858;2023-02-28T08:02:25;8.80;;;8.20;;
6033;SDS011;3045;43.226;27.858;2023-02-28T08:04:52;7.80;;;7.23;;
6033;SDS011;3045;43.226;27.858;2023-02-28T08:07:19;8.27;;;7.87;;
6033;SDS011;3045;43.226;27.858;2023-02-28T08:09:47;8.50;;;7.90;;
6033;SDS011;3045;43.226;27.858;2023-02-28T08:12:14;8.03;;;7.60;;
6033;SDS011;3045;43.226;27.858;2023-02-28T08:14:42;7.97;;;7.37;;
6033;SDS011;3045;43.226;27.858;2023-02-28T08:17:09;8.90;;;8.40;;
6033;SDS011;3045;43.226;27.858;2023-02-28T08:19:36;8.10;;;7.60;;
6033;SDS011;3045;43.226;27.858;2023-02-28T08:22:03;7.47;;;7.07;;
6033;SDS011;3045;43.226;27.858;2023-02-28T08:24:31;8.00;;;7.40;;
6033;SDS011;3045;43.226;27.858;2023-02-28T08:26:59;9.20;;;8.50;;
6033;SDS011;3045;43.226;27.858;2023-02-28T08:29:26;8.57;;;7.97;;
6033;SDS011;3045;43.226;27.858;2023-02-28T08:31:55;8.37;;;7.80;;
6033;SDS011;3045;43.226;27.858;2023-02-28T08:34:23;8.67;;;8.27;;
6033;SDS011;3045;43.226;27.858;2023-02-28T08:36:50;9.20;;;8.50;;
6033;SDS011;3045;43.226;27.858;2023-02-28T08:39:18;9.37;;;8.67;;
6033;SDS011;3045;43.226;27.858;2023-02-28T08:41:45;8.10;;;7.60;;
6033;SDS011;3045;43.226;27.858;2023-02-28T08:44:13;8.67;;;8.07;;
6033;SDS011;3045;43.226;27.858;2023-02-28T08:46:40;9.20;;;8.63;;
6033;SDS011;3045;43.226;27.858;2023-02-28T08:49:07;8.93;;;8.53;;
6033;SDS011;3045;43.226;27.858;2023-02-28T08:51:36;8.93;;;8.23;;
6033;SDS011;3045;43.226;27.858;2023-02-28T08:54:05;9.60;;;8.90;;
6033;SDS011;3045;43.226;27.858;2023-02-28T08:56:32;8.60;;;8.20;;
6033;SDS011;3045;43.226;27.858;2023-02-28T08:58:59;8.60;;;8.10;;
6033;SDS011;3045;43.226;27.858;2023-02-28T09:01:27;9.47;;;8.60;;
6033;SDS011;3045;43.226;27.858;2023-02-28T09:03:56;8.83;;;8.33;;
6033;SDS011;3045;43.226;27.858;2023-02-28T09:06:24;8.43;;;7.93;;
6033;SDS011;3045;43.226;27.858;2023-02-28T09:08:55;9.03;;;8.43;;
6033;SDS011;3045;43.226;27.858;2023-02-28T09:11:24;9.03;;;8.53;;
6033;SDS011;3045;43.226;27.858;2023-02-28T09:13:51;8.40;;;8.00;;
6033;SDS011;3045;43.226;27.858;2023-02-28T09:16:20;8.13;;;7.57;;
6033;SDS011;3045;43.226;27.858;2023-02-28T09:18:49;7.87;;;7.50;;
6033;SDS011;3045;43.226;27.858;2023-02-28T09:21:16;8.73;;;8.23;;
6033;SDS011;3045;43.226;27.858;2023-02-28T09:23:45;9.50;;;8.70;;
6033;SDS011;3045;43.226;27.858;2023-02-28T09:26:14;9.30;;;8.70;;
6033;SDS011;3045;43.226;27.858;2023-02-28T09:28:42;8.93;;;8.53;;
6033;SDS011;3045;43.226;27.858;2023-02-28T09:31:13;8.97;;;8.27;;
6033;SDS011;3045;43.226;27.858;2023-02-28T09:33:41;8.00;;;7.60;;
6033;SDS011;3045;43.226;27.858;2023-02-28T09:36:09;9.03;;;8.43;;
6033;SDS011;3045;43.226;27.858;2023-02-28T09:38:36;8.83;;;8.33;;
6033;SDS011;3045;43.226;27.858;2023-02-28T09:41:03;7.63;;;7.13;;
6033;SDS011;3045;43.226;27.858;2023-02-28T09:43:38;9.20;;;8.50;;
6033;SDS011;3045;43.226;27.858;2023-02-28T09:46:11;9.27;;;8.43;;
6033;SDS011;3045;43.226;27.858;2023-02-28T09:48:53;8.67;;;8.27;;
6033;SDS011;3045;43.226;27.858;2023-02-28T09:51:35;11.67;;;8.53;;
6033;SDS011;3045;43.226;27.858;2023-02-28T09:54:12;10.27;;;9.23;;
6033;SDS011;3045;43.226;27.858;2023-02-28T09:56:44;10.27;;;9.57;;
6033;SDS011;3045;43.226;27.858;2023-02-28T09:59:16;8.70;;;8.03;;
6033;SDS011;3045;43.226;27.858;2023-02-28T10:01:54;7.90;;;7.43;;
6033;SDS011;3045;43.226;27.858;2023-02-28T10:04:33;11.33;;;7.90;;
6033;SDS011;3045;43.226;27.858;2023-02-28T10:07:13;10.13;;;9.43;;
6033;SDS011;3045;43.226;27.858;2023-02-28T10:09:50;11.80;;;9.60;;
6033;SDS011;3045;43.226;27.858;2023-02-28T10:12:21;10.00;;;9.30;;
6033;SDS011;3045;43.226;27.858;2023-02-28T10:14:50;9.53;;;8.60;;
6033;SDS011;3045;43.226;27.858;2023-02-28T10:17:19;8.43;;;7.83;;
6033;SDS011;3045;43.226;27.858;2023-02-28T10:19:53;8.60;;;7.93;;
6033;SDS011;3045;43.226;27.858;2023-02-28T10:22:27;9.50;;;8.57;;
6033;SDS011;3045;43.226;27.858;2023-02-28T10:25:00;9.27;;;8.23;;
6033;SDS011;3045;43.226;27.858;2023-02-28T10:27:32;8.80;;;8.00;;
6033;SDS011;3045;43.226;27.858;2023-02-28T10:29:59;10.37;;;8.23;;
6033;SDS011;3045;43.226;27.858;2023-02-28T10:32:29;9.13;;;8.40;;
6033;SDS011;3045;43.226;27.858;2023-02-28T10:34:59;13.17;;;8.40;;
6033;SDS011;3045;43.226;27.858;2023-02-28T10:37:34;6.90;;;6.50;;
6033;SDS011;3045;43.226;27.858;2023-02-28T10:40:04;12.07;;;7.53;;
6033;SDS011;3045;43.226;27.858;2023-02-28T10:42:33;9.97;;;7.83;;
6033;SDS011;3045;43.226;27.858;2023-02-28T10:45:10;8.87;;;8.37;;
6033;SDS011;3045;43.226;27.858;2023-02-28T10:47:41;9.07;;;8.13;;
6033;SDS011;3045;43.226;27.858;2023-02-28T10:50:27;10.17;;;9.27;;
6033;SDS011;3045;43.226;27.858;2023-02-28T10:53:16;9.73;;;8.83;;
6033;SDS011;3045;43.226;27.858;2023-02-28T10:55:58;9.23;;;8.47;;
6033;SDS011;3045;43.226;27.858;2023-02-28T10:58:27;8.67;;;8.10;;
6033;SDS011;3045;43.226;27.858;2023-02-28T11:00:56;8.43;;;7.70;;
6033;SDS011;3045;43.226;27.858;2023-02-28T11:03:28;7.93;;;7.30;;
6033;SDS011;3045;43.226;27.858;2023-02-28T11:05:56;8.77;;;8.17;;
6033;SDS011;3045;43.226;27.858;2023-02-28T11:08:25;13.83;;;8.80;;
6033;SDS011;3045;43.226;27.858;2023-02-28T11:10:55;7.60;;;6.90;;
6033;SDS011;3045;43.226;27.858;2023-02-28T11:13:27;25.90;;;8.73;;
6033;SDS011;3045;43.226;27.858;2023-02-28T11:15:59;9.53;;;7.97;;
6033;SDS011;3045;43.226;27.858;2023-02-28T11:18:30;9.13;;;8.43;;
6033;SDS011;3045;43.226;27.858;2023-02-28T11:21:05;7.87;;;7.17;;
6033;SDS011;3045;43.226;27.858;2023-02-28T11:23:35;9.63;;;8.67;;
6033;SDS011;3045;43.226;27.858;2023-02-28T11:26:06;10.80;;;8.97;;
6033;SDS011;3045;43.226;27.858;2023-02-28T11:28:36;18.60;;;9.13;;
6033;SDS011;3045;43.226;27.858;2023-02-28T11:31:08;14.00;;;8.97;;
6033;SDS011;3045;43.226;27.858;2023-02-28T11:33:44;7.80;;;7.40;;
6033;SDS011;3045;43.226;27.858;2023-02-28T11:36:14;10.43;;;7.57;;
6033;SDS011;3045;43.226;27.858;2023-02-28T11:38:45;8.40;;;7.80;;
6033;SDS011;3045;43.226;27.858;2023-02-28T11:41:18;9.97;;;8.23;;
6033;SDS011;3045;43.226;27.858;2023-02-28T11:43:57;8.63;;;7.90;;
6033;SDS011;3045;43.226;27.858;2023-02-28T11:46:33;7.97;;;7.50;;
6033;SDS011;3045;43.226;27.858;2023-02-28T11:49:13;8.83;;;8.00;;
6033;SDS011;3045;43.226;27.858;2023-02-28T11:51:53;8.17;;;6.80;;
6033;SDS011;3045;43.226;27.858;2023-02-28T11:54:28;7.70;;;7.10;;
6033;SDS011;3045;43.226;27.858;2023-02-28T11:57:09;8.17;;;7.67;;
6033;SDS011;3045;43.226;27.858;2023-02-28T11:59:51;7.77;;;7.03;;
6033;SDS011;3045;43.226;27.858;2023-02-28T12:02:28;9.50;;;7.20;;
6033;SDS011;3045;43.226;27.858;2023-02-28T12:05:13;8.03;;;7.30;;
6033;SDS011;3045;43.226;27.858;2023-02-28T12:07:53;9.20;;;7.83;;
6033;SDS011;3045;43.226;27.858;2023-02-28T12:10:32;8.13;;;7.63;;
6033;SDS011;3045;43.226;27.858;2023-02-28T12:13:08;7.80;;;7.30;;
6033;SDS011;3045;43.226;27.858;2023-02-28T12:18:50;8.17;;;7.53;;
6033;SDS011;3045;43.226;27.858;2023-02-28T12:21:31;9.20;;;8.43;;
6033;SDS011;3045;43.226;27.858;2023-02-28T12:24:14;8.47;;;7.93;;
6033;SDS011;3045;43.226;27.858;2023-02-28T12:26:56;8.37;;;7.77;;
6033;SDS011;3045;43.226;27.858;2023-02-28T12:29:28;10.13;;;8.67;;
6033;SDS011;3045;43.226;27.858;2023-02-28T12:31:56;8.17;;;7.57;;
6033;SDS011;3045;43.226;27.858;2023-02-28T12:34:28;8.30;;;7.70;;
6033;SDS011;3045;43.226;27.858;2023-02-28T12:37:01;9.67;;;8.67;;
6033;SDS011;3045;43.226;27.858;2023-02-28T12:39:34;8.67;;;7.97;;
6033;SDS011;3045;43.226;27.858;2023-02-28T12:42:07;8.50;;;8.10;;
6033;SDS011;3045;43.226;27.858;2023-02-28T12:44:40;8.63;;;7.97;;
6033;SDS011;3045;43.226;27.858;2023-02-28T12:47:12;9.37;;;8.60;;
6033;SDS011;3045;43.226;27.858;2023-02-28T12:49:46;8.73;;;8.17;;
6033;SDS011;3045;43.226;27.858;2023-02-28T12:52:19;10.00;;;9.23;;
6033;SDS011;3045;43.226;27.858;2023-02-28T12:54:51;12.00;;;9.30;;
6033;SDS011;3045;43.226;27.858;2023-02-28T12:57:27;10.63;;;9.60;;
6033;SDS011;3045;43.226;27.858;2023-02-28T13:00:03;10.03;;;9.27;;
6033;SDS011;3045;43.226;27.858;2023-02-28T13:02:44;9.03;;;8.43;;
6033;SDS011;3045;43.226;27.858;2023-02-28T13:05:38;9.47;;;8.67;;
6033;SDS011;3045;43.226;27.858;2023-02-28T13:11:30;13.47;;;9.93;;
6033;SDS011;3045;43.226;27.858;2023-02-28T13:14:02;11.07;;;10.17;;
6033;SDS011;3045;43.226;27.858;2023-02-28T13:16:48;10.07;;;9.20;;
6033;SDS011;3045;43.226;27.858;2023-02-28T13:19:21;10.27;;;9.40;;
6033;SDS011;3045;43.226;27.858;2023-02-28T13:21:50;10.60;;;9.73;;
6033;SDS011;3045;43.226;27.858;2023-02-28T13:24:40;10.27;;;9.47;;
6033;SDS011;3045;43.226;27.858;2023-02-28T13:27:11;11.03;;;10.00;;
6033;SDS011;3045;43.226;27.858;2023-02-28T13:30:00;10.77;;;8.57;;
6033;SDS011;3045;43.226;27.858;2023-02-28T13:32:32;10.43;;;9.33;;
6033;SDS011;3045;43.226;27.858;2023-02-28T13:38:12;12.23;;;10.80;;
6033;SDS011;3045;43.226;27.858;2023-02-28T13:40:43;10.60;;;9.70;;
6033;SDS011;3045;43.226;27.858;2023-02-28T13:43:10;11.77;;;10.43;;
6033;SDS011;3045;43.226;27.858;2023-02-28T13:45:39;12.13;;;11.00;;
6033;SDS011;3045;43.226;27.858;2023-02-28T13:48:34;11.53;;;10.37;;
6033;SDS011;3045;43.226;27.858;2023-02-28T13:54:07;13.53;;;11.10;;
6033;SDS011;3045;43.226;27.858;2023-02-28T13:56:45;15.17;;;11.37;;
6033;SDS011;3045;43.226;27.858;2023-02-28T13:59:21;13.37;;;11.43;;
6033;SDS011;3045;43.226;27.858;2023-02-28T14:02:02;15.73;;;10.97;;
6033;SDS011;3045;43.226;27.858;2023-02-28T14:04:47;13.53;;;12.30;;
6033;SDS011;3045;43.226;27.858;2023-02-28T14:07:21;13.57;;;11.30;;
6033;SDS011;3045;43.226;27.858;2023-02-28T14:09:55;12.33;;;11.33;;
6033;SDS011;3045;43.226;27.858;2023-02-28T14:15:34;13.10;;;11.53;;
6033;SDS011;3045;43.226;27.858;2023-02-28T14:18:11;16.03;;;12.30;;
6033;SDS011;3045;43.226;27.858;2023-02-28T14:20:42;20.33;;;11.70;;
6033;SDS011;3045;43.226;27.858;2023-02-28T14:23:13;13.63;;;12.33;;
6033;SDS011;3045;43.226;27.858;2023-02-28T14:25:52;12.27;;;11.30;;
6033;SDS011;3045;43.226;27.858;2023-02-28T14:28:29;14.80;;;11.90;;
6033;SDS011;3045;43.226;27.858;2023-02-28T14:31:12;16.07;;;12.17;;
6033;SDS011;3045;43.226;27.858;2023-02-28T14:33:45;13.47;;;11.33;;
6033;SDS011;3045;43.226;27.858;2023-02-28T14:36:24;15.67;;;12.20;;
6033;SDS011;3045;43.226;27.858;2023-02-28T14:38:58;19.50;;;13.90;;
6033;SDS011;3045;43.226;27.858;2023-02-28T14:41:29;14.10;;;11.30;;
6033;SDS011;3045;43.226;27.858;2023-02-28T14:44:00;16.40;;;12.13;;
6033;SDS011;3045;43.226;27.858;2023-02-28T14:46:30;13.80;;;12.53;;
6033;SDS011;3045;43.226;27.858;2023-02-28T14:49:04;15.73;;;13.17;;
6033;SDS011;3045;43.226;27.858;2023-02-28T14:51:33;13.70;;;11.13;;
6033;SDS011;3045;43.226;27.858;2023-02-28T14:54:01;11.67;;;10.20;;
6033;SDS011;3045;43.226;27.858;2023-02-28T14:56:30;16.40;;;12.30;;
6033;SDS011;3045;43.226;27.858;2023-02-28T14:59:00;16.77;;;13.20;;
6033;SDS011;3045;43.226;27.858;2023-02-28T15:01:28;12.67;;;11.47;;
6033;SDS011;3045;43.226;27.858;2023-02-28T15:03:57;14.93;;;12.83;;
6033;SDS011;3045;43.226;27.858;2023-02-28T15:06:28;16.27;;;13.03;;
6033;SDS011;3045;43.226;27.858;2023-02-28T15:09:13;13.63;;;12.40;;
6033;SDS011;3045;43.226;27.858;2023-02-28T15:11:44;20.37;;;12.67;;
6033;SDS011;3045;43.226;27.858;2023-02-28T15:14:17;17.37;;;12.40;;
6033;SDS011;3045;43.226;27.858;2023-02-28T15:16:46;20.20;;;12.60;;
6033;SDS011;3045;43.226;27.858;2023-02-28T15:19:20;13.27;;;11.53;;
6033;SDS011;3045;43.226;27.858;2023-02-28T15:21:51;12.27;;;11.17;;
6033;SDS011;3045;43.226;27.858;2023-02-28T15:24:23;14.00;;;11.37;;
6033;SDS011;3045;43.226;27.858;2023-02-28T15:26:58;16.90;;;11.80;;
6033;SDS011;3045;43.226;27.858;2023-02-28T15:29:27;17.77;;;11.97;;
6033;SDS011;3045;43.226;27.858;2023-02-28T15:31:57;13.00;;;11.57;;
6033;SDS011;3045;43.226;27.858;2023-02-28T15:34:28;12.47;;;11.43;;
6033;SDS011;3045;43.226;27.858;2023-02-28T15:37:02;12.53;;;11.23;;
6033;SDS011;3045;43.226;27.858;2023-02-28T15:39:51;12.60;;;11.33;;
6033;SDS011;3045;43.226;27.858;2023-02-28T15:42:20;14.00;;;11.50;;
6033;SDS011;3045;43.226;27.858;2023-02-28T15:44:48;15.47;;;12.00;;
6033;SDS011;3045;43.226;27.858;2023-02-28T15:47:17;12.77;;;10.90;;
6033;SDS011;3045;43.226;27.858;2023-02-28T15:49:46;13.87;;;11.53;;